createdAt,value
2018-02-21T00:01:19.988Z,77.77
2018-02-21T00:03:47.488Z,68.73
2018-02-21T00:06:14.993Z,74.87
2018-02-21T00:08:42.471Z,82.70
2018-02-21T00:11:09.980Z,69.93
2018-02-21T00:13:38.316Z,75.50
2018-02-21T00:16:05.824Z,74.80
2018-02-21T00:18:34.064Z,75.87
2018-02-21T00:21:01.544Z,76.77
2018-02-21T00:23:34.959Z,78.50
2018-02-21T00:26:02.439Z,75.27
2018-02-21T00:28:29.949Z,78.83
2018-02-21T00:30:57.435Z,75.97
2018-02-21T00:33:24.941Z,72.93
2018-02-21T00:35:52.414Z,72.67
2018-02-21T00:38:19.924Z,78.83
2018-02-21T00:40:47.415Z,93.73
2018-02-21T00:43:14.919Z,78.60
2018-02-21T00:45:42.402Z,85.60
2018-02-21T00:48:09.902Z,80.90
2018-02-21T00:50:37.387Z,75.90
2018-02-21T00:53:04.896Z,72.47
2018-02-21T00:55:32.388Z,72.37
2018-02-21T00:57:59.893Z,83.87
2018-02-21T01:00:40.830Z,85.83
2018-02-21T01:03:08.335Z,82.40
2018-02-21T01:05:36.586Z,83.23
2018-02-21T01:08:04.067Z,77.70
2018-02-21T01:10:31.565Z,86.53
2018-02-21T01:12:59.815Z,72.63
2018-02-21T01:15:27.327Z,79.93
2018-02-21T01:17:54.813Z,77.30
2018-02-21T01:20:22.322Z,78.60
2018-02-21T01:22:49.799Z,79.00
2018-02-21T01:25:17.303Z,78.70
2018-02-21T01:27:44.793Z,75.53
2018-02-21T01:30:12.298Z,81.83
2018-02-21T01:32:39.783Z,86.23
2018-02-21T01:35:07.292Z,81.07
2018-02-21T01:37:34.784Z,75.63
2018-02-21T01:40:02.292Z,87.17
2018-02-21T01:42:29.778Z,81.33
2018-02-21T01:44:58.047Z,80.40
2018-02-21T01:47:25.530Z,75.30
2018-02-21T01:49:53.041Z,95.00
2018-02-21T01:52:20.523Z,88.13
2018-02-21T01:54:48.027Z,92.13
2018-02-21T01:57:15.511Z,89.20
2018-02-21T01:59:43.020Z,83.63
2018-02-21T02:02:10.502Z,84.30
2018-02-21T02:04:38.772Z,83.80
2018-02-21T02:07:06.251Z,91.17
2018-02-21T02:09:33.759Z,84.80
2018-02-21T02:12:01.248Z,83.30
2018-02-21T02:14:28.753Z,89.80
2018-02-21T02:16:56.239Z,86.83
2018-02-21T02:19:23.736Z,81.47
2018-02-21T02:21:51.235Z,81.57
2018-02-21T02:24:18.732Z,88.13
2018-02-21T02:26:46.240Z,82.00
2018-02-21T02:29:13.728Z,85.73
2018-02-21T02:31:41.227Z,85.77
2018-02-21T02:34:09.475Z,87.00
2018-02-21T02:36:36.975Z,88.97
2018-02-21T02:39:16.965Z,98.07
2018-02-21T02:41:44.468Z,91.27
2018-02-21T02:44:11.963Z,88.87
2018-02-21T02:46:39.471Z,89.20
2018-02-21T02:49:06.958Z,88.40
2018-02-21T02:51:34.472Z,98.93
2018-02-21T02:54:01.956Z,92.90
2018-02-21T02:56:37.647Z,96.63
2018-02-21T02:59:05.124Z,91.37
2018-02-21T03:01:32.631Z,88.83
2018-02-21T03:04:00.125Z,91.37
2018-02-21T03:06:27.643Z,93.93
2018-02-21T03:08:55.127Z,94.50
2018-02-21T03:11:22.642Z,98.23
2018-02-21T03:13:50.124Z,99.43
2018-02-21T03:16:18.399Z,101.57
2018-02-21T03:18:45.876Z,98.33
2018-02-21T03:21:14.152Z,95.13
2018-02-21T03:23:41.639Z,93.70
2018-02-21T03:26:09.911Z,84.80
2018-02-21T03:28:37.398Z,99.37
2018-02-21T03:31:05.668Z,104.47
2018-02-21T03:33:33.152Z,97.03
2018-02-21T03:36:02.432Z,90.40
2018-02-21T03:38:29.916Z,93.50
2018-02-21T03:40:57.419Z,92.07
2018-02-21T03:43:24.911Z,94.00
2018-02-21T03:45:52.427Z,94.30
2018-02-21T03:48:19.911Z,109.03
2018-02-21T03:50:47.424Z,104.37
2018-02-21T03:53:14.902Z,101.50
2018-02-21T03:55:42.416Z,111.83
2018-02-21T03:58:09.904Z,107.93
2018-02-21T04:00:38.179Z,108.27
2018-02-21T04:03:06.434Z,112.43
2018-02-21T04:05:33.944Z,102.20
2018-02-21T04:08:02.211Z,104.53
2018-02-21T04:10:29.717Z,98.30
2018-02-21T04:12:57.215Z,107.27
2018-02-21T04:15:24.727Z,105.20
2018-02-21T04:17:52.216Z,106.47
2018-02-21T04:20:20.494Z,92.53
2018-02-21T04:22:47.988Z,108.93
2018-02-21T04:25:15.510Z,98.93
2018-02-21T04:42:02.965Z,91.83
2018-02-21T04:44:30.445Z,91.03
2018-02-21T04:46:57.964Z,90.33
2018-02-21T04:49:25.446Z,94.87
2018-02-21T04:52:07.988Z,92.27
2018-02-21T04:58:13.448Z,94.77
2018-02-21T05:00:40.976Z,92.10
2018-02-21T05:03:08.440Z,92.67
2018-02-21T05:05:35.929Z,98.67
2018-02-21T05:08:03.426Z,90.67
2018-02-21T05:10:30.911Z,91.57
2018-02-21T05:12:59.198Z,95.80
2018-02-21T05:15:26.692Z,93.80
2018-02-21T05:17:54.972Z,88.30
2018-02-21T05:20:23.228Z,95.83
2018-02-21T05:22:50.738Z,94.57
2018-02-21T05:25:18.986Z,95.97
2018-02-21T05:27:46.467Z,86.17
2018-02-21T05:30:13.972Z,93.63
2018-02-21T05:32:42.207Z,82.97
2018-02-21T05:35:09.735Z,87.70
2018-02-21T05:37:37.220Z,82.30
2018-02-21T05:40:04.718Z,88.37
2018-02-21T05:42:32.199Z,95.53
2018-02-21T05:44:59.698Z,88.50
2018-02-21T05:47:27.964Z,84.70
2018-02-21T05:49:55.467Z,88.93
2018-02-21T05:52:23.719Z,92.80
2018-02-21T05:54:51.218Z,92.13
2018-02-21T05:57:19.463Z,86.70
2018-02-21T05:59:46.961Z,90.63
2018-02-21T06:02:14.458Z,93.63
2018-02-21T06:04:41.940Z,95.37
2018-02-21T06:07:09.434Z,85.40
2018-02-21T06:09:36.915Z,85.63
2018-02-21T06:12:05.417Z,98.03
2018-02-21T06:14:32.910Z,85.60
2018-02-21T06:17:01.175Z,84.43
2018-02-21T06:19:28.657Z,93.50
2018-02-21T06:21:56.176Z,91.23
2018-02-21T06:24:23.660Z,96.00
2018-02-21T06:26:51.177Z,97.90
2018-02-21T06:29:18.668Z,96.23
2018-02-21T06:31:46.161Z,90.40
2018-02-21T06:34:13.664Z,93.67
2018-02-21T06:36:41.148Z,94.83
2018-02-21T06:39:08.654Z,91.17
2018-02-21T06:41:36.132Z,99.40
2018-02-21T06:44:03.648Z,88.40
2018-02-21T06:46:31.145Z,108.53
2018-02-21T06:48:59.414Z,108.97
2018-02-21T06:51:47.070Z,107.37
2018-02-21T06:54:14.578Z,84.63
2018-02-21T06:56:42.074Z,91.00
2018-02-21T06:59:09.571Z,89.43
2018-02-21T07:01:37.055Z,87.17
2018-02-21T07:04:05.315Z,88.37
2018-02-21T07:06:32.794Z,92.27
2018-02-21T07:09:00.270Z,90.87
2018-02-21T07:11:27.777Z,85.67
2018-02-21T07:13:55.261Z,115.13
2018-02-21T07:16:22.764Z,98.80
2018-02-21T07:18:50.244Z,94.37
2018-02-21T07:21:17.747Z,100.33
2018-02-21T07:23:45.987Z,88.57
2018-02-21T07:26:13.490Z,98.30
2018-02-21T07:28:41.769Z,88.90
2018-02-21T07:31:09.263Z,93.00
2018-02-21T07:33:38.188Z,85.30
2018-02-21T07:36:05.704Z,81.53
2018-02-21T07:38:33.191Z,85.83
2018-02-21T07:41:00.677Z,79.50
2018-02-21T07:43:28.947Z,81.90
2018-02-21T07:45:56.444Z,84.50
2018-02-21T07:48:23.951Z,80.77
2018-02-21T07:50:51.438Z,85.67
2018-02-21T07:53:18.945Z,82.00
2018-02-21T07:55:47.209Z,78.37
2018-02-21T07:58:14.733Z,77.07
2018-02-21T08:00:43.010Z,76.43
2018-02-21T08:03:10.509Z,77.70
2018-02-21T08:05:38.017Z,85.37
2018-02-21T08:08:05.508Z,79.07
2018-02-21T08:10:33.776Z,83.70
2018-02-21T08:13:01.260Z,93.90
2018-02-21T08:15:29.526Z,79.83
2018-02-21T08:17:57.014Z,79.20
2018-02-21T08:20:24.508Z,77.47
2018-02-21T08:22:51.987Z,74.30
2018-02-21T08:25:19.501Z,71.93
2018-02-21T08:27:46.974Z,65.63
2018-02-21T08:30:14.466Z,68.83
2018-02-21T08:32:42.722Z,74.37
2018-02-21T08:35:10.222Z,61.30
2018-02-21T08:37:38.492Z,69.67
2018-02-21T08:40:05.979Z,68.27
2018-02-21T08:42:34.251Z,61.90
2018-02-21T08:45:01.768Z,59.20
2018-02-21T08:47:29.271Z,67.70
2018-02-21T08:49:56.752Z,63.67
2018-02-21T08:52:24.260Z,67.60
2018-02-21T08:54:52.512Z,92.83
2018-02-21T08:57:20.011Z,68.80
2018-02-21T08:59:47.499Z,81.00
2018-02-21T09:02:15.017Z,69.83
2018-02-21T09:04:42.504Z,71.83
2018-02-21T09:07:10.012Z,70.23
2018-02-21T09:09:37.492Z,69.50
2018-02-21T09:12:05.013Z,60.40
2018-02-21T09:14:32.492Z,56.73
2018-02-21T09:17:00.741Z,60.10
2018-02-21T09:19:28.250Z,61.70
2018-02-21T09:21:55.729Z,62.07
2018-02-21T09:24:24.000Z,64.40
2018-02-21T09:26:51.484Z,63.43
2018-02-21T09:29:19.001Z,82.63
2018-02-21T09:31:46.479Z,74.40
2018-02-21T09:34:14.031Z,63.37
2018-02-21T09:36:42.256Z,68.70
2018-02-21T09:39:09.763Z,59.70
2018-02-21T09:41:37.257Z,57.80
2018-02-21T09:44:04.785Z,59.20
2018-02-21T09:46:32.266Z,52.10
2018-02-21T09:49:00.523Z,48.77
2018-02-21T09:51:29.013Z,50.50
2018-02-21T09:53:56.505Z,50.77
2018-02-21T09:56:24.018Z,56.53
2018-02-21T09:58:51.506Z,54.10
2018-02-21T10:01:19.021Z,53.23
2018-02-21T10:03:47.273Z,51.47
2018-02-21T10:06:14.775Z,50.80
2018-02-21T10:08:42.268Z,49.90
2018-02-21T10:11:09.777Z,48.87
2018-02-21T10:13:48.159Z,58.33
2018-02-21T10:16:16.428Z,62.00
2018-02-21T10:18:43.907Z,57.00
2018-02-21T10:21:12.198Z,56.80
2018-02-21T10:23:40.439Z,46.30
2018-02-21T10:26:07.930Z,51.13
2018-02-21T10:28:35.441Z,51.90
2018-02-21T10:31:02.923Z,51.37
2018-02-21T10:33:30.430Z,51.87
2018-02-21T10:35:57.919Z,47.50
2018-02-21T10:38:25.417Z,54.83
2018-02-21T10:40:54.662Z,59.97
2018-02-21T10:43:22.167Z,53.30
2018-02-21T10:45:49.672Z,49.80
2018-02-21T10:48:17.184Z,64.93
2018-02-21T10:50:44.677Z,50.17
2018-02-21T10:53:12.190Z,52.47
2018-02-21T10:55:39.674Z,47.07
2018-02-21T10:58:13.696Z,48.80
2018-02-21T11:00:46.926Z,45.50
2018-02-21T11:03:17.596Z,42.07
2018-02-21T11:05:45.084Z,54.57
2018-02-21T11:08:13.331Z,49.03
2018-02-21T11:10:40.831Z,46.57
2018-02-21T11:13:08.311Z,44.10
2018-02-21T11:15:36.592Z,43.63
2018-02-21T11:18:04.882Z,45.33
2018-02-21T11:20:32.377Z,45.10
2018-02-21T11:22:59.856Z,48.47
2018-02-21T11:25:27.357Z,42.77
2018-02-21T11:27:54.870Z,39.87
2018-02-21T11:30:23.140Z,44.47
2018-02-21T11:32:50.624Z,42.13
2018-02-21T11:35:18.892Z,44.57
2018-02-21T11:37:46.389Z,45.67
2018-02-21T11:40:14.654Z,45.53
2018-02-21T11:42:42.139Z,45.73
2018-02-21T11:45:10.413Z,42.43
2018-02-21T11:47:37.899Z,42.40
2018-02-21T11:50:06.179Z,43.03
2018-02-21T11:52:33.659Z,43.30
2018-02-21T11:55:01.923Z,42.43
2018-02-21T11:57:29.406Z,35.60
2018-02-21T11:59:56.938Z,37.83
2018-02-21T12:02:24.449Z,34.93
2018-02-21T12:04:56.689Z,30.40
2018-02-21T12:07:24.195Z,37.23
2018-02-21T12:10:11.963Z,33.47
2018-02-21T12:12:40.224Z,32.13
2018-02-21T12:15:07.740Z,32.77
2018-02-21T12:17:35.229Z,29.40
2018-02-21T12:20:02.730Z,34.40
2018-02-21T12:22:30.236Z,30.33
2018-02-21T12:24:58.520Z,38.07
2018-02-21T12:27:26.772Z,28.67
2018-02-21T12:29:54.300Z,32.27
2018-02-21T12:32:41.711Z,33.03
2018-02-21T12:35:09.980Z,31.77
2018-02-21T12:37:37.476Z,34.70
2018-02-21T12:40:05.765Z,32.47
2018-02-21T12:42:34.024Z,34.27
2018-02-21T12:45:01.532Z,36.20
2018-02-21T12:47:29.771Z,35.37
2018-02-21T12:49:57.287Z,32.17
2018-02-21T12:52:25.553Z,29.00
2018-02-21T12:54:53.051Z,31.47
2018-02-21T12:57:21.299Z,27.70
2018-02-21T12:59:48.795Z,34.60
2018-02-21T13:02:16.287Z,35.17
2018-02-21T13:04:43.805Z,37.23
2018-02-21T13:07:11.284Z,33.83
2018-02-21T13:09:38.787Z,35.40
2018-02-21T13:12:07.027Z,39.70
2018-02-21T13:14:34.538Z,38.73
2018-02-21T13:17:02.802Z,31.03
2018-02-21T13:19:30.309Z,32.07
2018-02-21T13:21:57.797Z,37.73
2018-02-21T13:24:25.324Z,35.87
2018-02-21T13:26:52.817Z,40.37
2018-02-21T13:29:20.325Z,42.27
2018-02-21T13:31:47.871Z,36.00
2018-02-21T13:34:15.381Z,33.83
2018-02-21T13:36:42.863Z,34.67
2018-02-21T13:39:10.364Z,38.20
2018-02-21T13:41:37.848Z,39.93
2018-02-21T13:44:05.368Z,35.93
2018-02-21T13:46:32.864Z,33.27
2018-02-21T13:49:01.126Z,33.70
2018-02-21T13:51:28.612Z,42.80
2018-02-21T13:53:56.131Z,36.83
2018-02-21T13:56:23.619Z,32.80
2018-02-21T13:58:51.134Z,33.83
2018-02-21T14:01:19.384Z,31.53
2018-02-21T14:03:46.889Z,41.83
2018-02-21T14:06:15.139Z,33.83
2018-02-21T14:08:42.651Z,30.60
2018-02-21T14:11:10.896Z,30.67
2018-02-21T14:13:38.391Z,34.23
2018-02-21T14:16:05.874Z,36.80
2018-02-21T14:18:33.380Z,30.07
2018-02-21T14:21:00.929Z,36.23
2018-02-21T14:23:29.211Z,36.23
2018-02-21T14:25:57.470Z,41.83
2018-02-21T14:28:24.986Z,33.20
2018-02-21T14:30:52.471Z,43.10
2018-02-21T14:33:19.950Z,31.50
2018-02-21T14:35:47.466Z,33.87
2018-02-21T14:38:14.984Z,32.13
2018-02-21T14:40:42.573Z,33.07
2018-02-21T14:43:10.090Z,34.13
2018-02-21T14:45:38.367Z,30.97
2018-02-21T14:48:05.865Z,28.83
2018-02-21T14:50:34.127Z,34.73
2018-02-21T14:53:01.610Z,38.90
2018-02-21T14:55:29.892Z,29.80
2018-02-21T14:57:57.376Z,36.77
2018-02-21T15:00:25.657Z,33.13
2018-02-21T15:02:53.907Z,37.33
2018-02-21T15:05:21.416Z,33.83
2018-02-21T15:07:49.672Z,31.33
2018-02-21T15:10:19.075Z,30.27
2018-02-21T15:12:46.560Z,35.07
2018-02-21T15:15:14.064Z,28.70
2018-02-21T15:17:42.321Z,32.33
2018-02-21T15:20:09.834Z,32.20
2018-02-21T15:22:37.327Z,33.20
2018-02-21T15:25:04.841Z,29.10
2018-02-21T15:27:32.323Z,32.57
2018-02-21T15:29:59.827Z,32.43
2018-02-21T15:32:27.316Z,32.73
2018-02-21T15:34:54.838Z,25.90
2018-02-21T15:37:23.076Z,27.43
2018-02-21T15:39:50.589Z,33.90
2018-02-21T15:42:18.093Z,31.10
2018-02-21T15:44:45.603Z,29.93
2018-02-21T15:47:13.102Z,24.83
2018-02-21T15:49:41.381Z,28.40
2018-02-21T15:52:08.873Z,40.00
2018-02-21T15:54:56.097Z,27.80
2018-02-21T15:57:23.579Z,29.13
2018-02-21T15:59:51.847Z,27.20
2018-02-21T16:02:19.462Z,31.23
2018-02-21T16:04:47.000Z,30.10
2018-02-21T16:07:15.249Z,26.60
2018-02-21T16:09:42.768Z,26.30
2018-02-21T16:12:12.017Z,32.30
2018-02-21T16:14:39.525Z,27.50
2018-02-21T16:17:07.002Z,29.37
2018-02-21T16:19:35.290Z,27.50
2018-02-21T16:22:02.767Z,29.73
2018-02-21T16:24:31.037Z,28.00
2018-02-21T16:26:58.518Z,29.03
2018-02-21T16:29:26.014Z,31.67
2018-02-21T16:31:53.510Z,27.03
2018-02-21T16:34:21.015Z,31.63
2018-02-21T16:36:48.500Z,29.60
2018-02-21T16:39:16.014Z,27.17
2018-02-21T16:41:43.495Z,34.30
2018-02-21T16:44:11.001Z,29.53
2018-02-21T16:46:38.501Z,27.13
2018-02-21T16:49:06.776Z,34.53
2018-02-21T16:51:35.045Z,28.13
2018-02-21T16:54:08.299Z,28.53
2018-02-21T16:56:35.795Z,29.40
2018-02-21T16:59:03.299Z,30.10
2018-02-21T17:01:30.802Z,34.20
2018-02-21T17:03:58.297Z,33.53
2018-02-21T17:06:49.712Z,52.90
2018-02-21T17:09:18.987Z,35.30
2018-02-21T17:14:39.868Z,29.23
2018-02-21T17:20:00.019Z,28.27
2018-02-21T17:22:27.503Z,31.57
2018-02-21T17:24:54.996Z,29.10
2018-02-21T17:27:22.478Z,27.73
2018-02-21T17:29:49.981Z,29.77
2018-02-21T17:32:17.463Z,26.67
2018-02-21T17:34:49.159Z,26.70
2018-02-21T17:37:17.731Z,33.87
2018-02-21T17:39:46.138Z,26.30
2018-02-21T17:42:14.611Z,32.97
2018-02-21T17:44:42.107Z,29.27
2018-02-21T17:47:09.597Z,27.57
2018-02-21T17:49:37.096Z,32.13
2018-02-21T17:52:05.344Z,31.63
2018-02-21T17:54:32.847Z,31.03
2018-02-21T17:57:01.104Z,29.80
2018-02-21T17:59:32.066Z,30.10
2018-02-21T18:02:02.973Z,33.10
2018-02-21T18:04:30.456Z,30.00
2018-02-21T18:06:57.968Z,34.43
2018-02-21T18:09:25.768Z,34.07
2018-02-21T18:11:53.270Z,67.77
2018-02-21T18:14:20.746Z,40.77
2018-02-21T18:16:48.274Z,33.57
2018-02-21T18:19:16.542Z,37.63
2018-02-21T18:21:50.053Z,36.83
2018-02-21T18:24:17.546Z,39.07
2018-02-21T18:26:45.825Z,43.10
2018-02-21T18:29:14.076Z,39.83
2018-02-21T18:31:41.625Z,35.63
2018-02-21T18:34:09.107Z,46.17
2018-02-21T18:36:36.608Z,43.20
2018-02-21T18:39:04.104Z,34.23
2018-02-21T18:41:32.388Z,44.97
2018-02-21T18:44:00.661Z,45.00
2018-02-21T18:46:28.168Z,40.17
2018-02-21T18:48:55.656Z,40.13
2018-02-21T18:51:23.171Z,46.77
2018-02-21T18:53:50.660Z,43.80
2018-02-21T18:56:19.135Z,44.83
2018-02-21T18:58:46.629Z,46.50
2018-02-21T19:01:14.131Z,44.90
2018-02-21T19:03:41.719Z,44.30
2018-02-21T19:06:09.234Z,46.07
2018-02-21T19:08:37.491Z,49.27
2018-02-21T19:11:05.045Z,43.43
2018-02-21T19:13:32.575Z,89.07
2018-02-21T19:16:00.108Z,55.17
2018-02-21T19:18:27.605Z,45.00
2018-02-21T19:20:55.125Z,54.03
2018-02-21T19:23:22.628Z,49.17
2018-02-21T19:25:50.142Z,53.07
2018-02-21T19:28:17.620Z,49.33
2018-02-21T19:30:45.129Z,53.93
2018-02-21T19:33:12.617Z,51.17
2018-02-21T19:35:40.120Z,49.80
2018-02-21T19:38:07.609Z,51.73
2018-02-21T19:40:35.118Z,49.10
2018-02-21T19:43:02.608Z,47.23
2018-02-21T19:45:30.876Z,52.43
2018-02-21T19:47:58.351Z,62.17
2018-02-21T19:50:25.901Z,49.80
2018-02-21T19:52:53.381Z,51.27
2018-02-21T19:55:20.879Z,53.13
2018-02-21T19:57:49.150Z,64.23
2018-02-21T20:00:17.424Z,61.27
2018-02-21T20:02:44.988Z,54.67
2018-02-21T20:05:12.570Z,61.30
2018-02-21T20:07:40.076Z,54.60
2018-02-21T20:10:08.315Z,53.40
2018-02-21T20:12:35.849Z,53.40
2018-02-21T20:15:03.330Z,53.37
2018-02-21T20:17:30.848Z,49.10
2018-02-21T20:19:58.342Z,54.00
2018-02-21T20:22:26.626Z,55.60
2018-02-21T20:24:54.875Z,53.33
2018-02-21T20:27:22.376Z,57.00
2018-02-21T20:29:50.638Z,50.53
2018-02-21T20:32:18.148Z,51.20
2018-02-21T20:34:46.401Z,53.93
2018-02-21T20:37:13.907Z,55.87
2018-02-21T20:39:42.169Z,57.40
2018-02-21T20:42:09.689Z,52.27
2018-02-21T20:44:37.172Z,48.73
2018-02-21T20:47:04.652Z,55.70
2018-02-21T20:49:32.155Z,52.50
2018-02-21T20:52:00.608Z,51.13
2018-02-21T20:54:28.109Z,55.13
2018-02-21T20:56:55.596Z,54.37
2018-02-21T20:59:23.864Z,56.43
2018-02-21T21:01:51.365Z,53.37
2018-02-21T21:04:19.641Z,59.20
2018-02-21T21:06:47.895Z,54.40
2018-02-21T21:09:15.402Z,53.33
2018-02-21T21:11:43.668Z,70.90
2018-02-21T21:14:11.183Z,64.23
2018-02-21T21:16:38.672Z,56.10
2018-02-21T21:19:06.171Z,57.40
2018-02-21T21:21:33.672Z,50.73
2018-02-21T21:24:01.950Z,49.77
2018-02-21T21:26:29.435Z,53.90
2018-02-21T21:28:57.737Z,64.00
2018-02-21T21:31:25.232Z,62.10
2018-02-21T21:33:52.755Z,59.73
2018-02-21T21:36:20.239Z,53.23
2018-02-21T21:38:48.486Z,52.47
2018-02-21T21:41:15.993Z,49.47
2018-02-21T21:43:43.479Z,58.80
2018-02-21T21:46:10.995Z,55.00
2018-02-21T21:48:38.480Z,56.40
2018-02-21T21:51:05.983Z,55.77
2018-02-21T21:53:34.227Z,48.80
2018-02-21T21:56:01.730Z,53.33
2018-02-21T21:58:29.992Z,55.10
2018-02-21T22:00:57.513Z,50.67
2018-02-21T22:03:25.004Z,77.67
2018-02-21T22:05:52.517Z,73.20
2018-02-21T22:08:21.781Z,58.77
2018-02-21T22:10:49.263Z,53.60
2018-02-21T22:13:16.773Z,50.00
2018-02-21T22:15:45.040Z,53.43
2018-02-21T22:18:12.544Z,53.23
2018-02-21T22:20:40.804Z,50.90
2018-02-21T22:23:08.324Z,54.03
2018-02-21T22:25:35.812Z,49.70
2018-02-21T22:28:03.320Z,45.47
2018-02-21T22:30:30.815Z,49.13
2018-02-21T22:32:59.103Z,50.10
2018-02-21T22:35:29.262Z,52.00
2018-02-21T22:37:57.544Z,52.23
2018-02-21T22:40:25.031Z,98.70
2018-02-21T22:42:52.533Z,51.30
2018-02-21T22:45:20.035Z,46.23
2018-02-21T22:47:48.312Z,46.23
2018-02-21T22:50:16.585Z,46.00
2018-02-21T22:52:44.092Z,49.03
2018-02-21T22:55:11.562Z,50.83
2018-02-21T22:57:39.097Z,43.97
2018-02-21T23:00:06.579Z,46.97
2018-02-21T23:02:34.056Z,48.90
2018-02-21T23:05:02.339Z,45.43
2018-02-21T23:07:30.591Z,48.30
2018-02-21T23:09:58.084Z,66.70
2018-02-21T23:12:25.559Z,50.67
2018-02-21T23:14:53.056Z,47.10
2018-02-21T23:17:21.304Z,45.80
2018-02-21T23:19:48.816Z,45.90
2018-02-21T23:22:16.336Z,42.13
2018-02-21T23:24:43.852Z,45.47
2018-02-21T23:27:17.581Z,49.17
2018-02-21T23:29:45.091Z,39.83
2018-02-21T23:32:12.570Z,47.60
2018-02-21T23:34:40.084Z,47.13
2018-02-21T23:37:07.574Z,49.87
2018-02-21T23:39:35.088Z,45.23
2018-02-21T23:42:02.584Z,43.30
2018-02-21T23:44:30.860Z,45.30
2018-02-21T23:46:59.120Z,45.20
2018-02-21T23:49:26.645Z,41.60
2018-02-21T23:51:54.126Z,44.60
2018-02-21T23:54:21.603Z,45.40
2018-02-21T23:56:49.106Z,53.60
2018-02-21T23:59:16.605Z,45.10
